Time;durP1;ratioP1;P1;durP2;ratioP2;P2;SDS_P1;SDS_P2;PMS_P1;PMS_P2;Temp;Humidity;BMP_temperature;BMP_pressure;BME280_temperature;BME280_humidity;BME280_pressure;Samples;Min_cycle;Max_cycle;Signal;HPM_P1;HPM_P2
2022/09/13 00:00:59;;;;;;;8.65;7.75;;;;;;;13.11;93.57;98876.02;1695034;83;21080;-70
2022/09/13 00:03:26;;;;;;;7.67;6.65;;;;;;;13.04;94.08;98877.05;1695855;83;21064;-71
2022/09/13 00:05:52;;;;;;;7.47;6.28;;;;;;;12.97;94.20;98867.72;1731229;81;21068;-71
2022/09/13 00:08:20;;;;;;;9.55;6.10;;;;;;;13.01;94.19;98861.47;1743095;80;21123;-72
2022/09/13 00:10:47;;;;;;;9.95;6.72;;;;;;;13.05;94.28;98860.03;1738119;81;21234;-72
2022/09/13 00:13:15;;;;;;;6.10;5.03;;;;;;;13.01;94.39;98860.95;1730805;81;21059;-71
2022/09/13 00:15:48;;;;;;;6.20;5.17;;;;;;;12.95;94.57;98858.59;1755149;80;21006;-74
2022/09/13 00:18:15;;;;;;;7.58;4.97;;;;;;;13.02;94.47;98852.44;1756553;80;21143;-74
2022/09/13 00:20:42;;;;;;;6.62;6.03;;;;;;;13.07;94.49;98853.45;1724654;81;21088;-74
2022/09/13 00:23:09;;;;;;;6.35;5.75;;;;;;;13.06;94.54;98859.84;1721801;81;21236;-70
2022/09/13 00:25:36;;;;;;;6.70;5.33;;;;;;;13.00;94.67;98855.33;1729217;81;21048;-75
2022/09/13 00:28:03;;;;;;;6.03;5.42;;;;;;;13.05;94.74;98854.70;1736921;81;21512;-75
2022/09/13 00:30:30;;;;;;;7.05;6.35;;;;;;;13.10;94.44;98858.39;1730367;81;21066;-74
2022/09/13 00:32:57;;;;;;;7.22;6.45;;;;;;;13.04;94.55;98859.22;1728069;81;21140;-73
2022/09/13 00:35:23;;;;;;;9.75;6.17;;;;;;;12.98;95.00;98862.19;1707500;83;21192;-74
2022/09/13 00:37:50;;;;;;;7.83;6.50;;;;;;;12.98;95.00;98858.72;1748480;80;21087;-74
2022/09/13 00:40:16;;;;;;;7.70;6.55;;;;;;;13.06;94.96;98853.17;1754664;80;21019;-72
2022/09/13 00:42:43;;;;;;;7.87;7.03;;;;;;;13.06;95.28;98857.69;1755484;80;21076;-73
2022/09/13 00:45:16;;;;;;;7.85;6.65;;;;;;;13.05;95.54;98856.03;1752676;80;21093;-74
2022/09/13 00:47:58;;;;;;;7.40;6.53;;;;;;;13.07;95.19;98855.31;1720185;81;21021;-73
2022/09/13 00:50:39;;;;;;;7.28;6.67;;;;;;;13.12;95.02;98853.67;1724873;81;21027;-74
2022/09/13 00:53:17;;;;;;;9.40;7.62;;;;;;;13.06;95.11;98847.84;1735656;81;21047;-72
2022/09/13 00:56:00;;;;;;;13.65;6.62;;;;;;;12.98;95.48;98852.86;1721377;81;21005;-74
2022/09/13 00:58:32;;;;;;;7.65;6.67;;;;;;;13.02;95.64;98854.61;1719942;81;21038;-73
2022/09/13 01:00:59;;;;;;;10.00;7.73;;;;;;;13.12;95.69;98855.00;1758395;80;21819;-74
2022/09/13 01:03:27;;;;;;;8.38;7.47;;;;;;;13.08;95.55;98855.11;1757401;80;21069;-75
2022/09/13 01:06:00;;;;;;;7.95;7.15;;;;;;;13.03;95.99;98850.91;1757619;80;21555;-72
2022/09/13 01:08:30;;;;;;;8.68;6.83;;;;;;;13.08;95.90;98852.97;1749135;80;21508;-69
2022/09/13 01:10:58;;;;;;;8.50;7.62;;;;;;;13.17;95.65;98852.55;1753776;80;21117;-73
2022/09/13 01:13:27;;;;;;;8.78;7.53;;;;;;;13.14;96.09;98850.80;1756351;80;21199;-73
2022/09/13 01:15:54;;;;;;;8.03;6.97;;;;;;;13.08;96.16;98847.11;1760910;79;21104;-72
2022/09/13 01:20:49;;;;;;;9.78;8.08;;;;;;;13.15;95.83;98844.43;1847613;75;28184;-74
2022/09/13 01:23:37;;;;;;;9.53;7.85;;;;;;;13.08;96.10;98851.11;1841543;77;21147;-71
2022/09/13 01:26:32;;;;;;;8.43;6.33;;;;;;;13.00;96.46;98851.33;1846064;75;22246;-74
2022/09/13 01:29:28;;;;;;;8.95;7.28;;;;;;;13.02;96.62;98850.61;1786563;77;21086;-72
2022/09/13 01:32:35;;;;;;;8.23;7.42;;;;;;;13.07;96.70;98845.98;1776333;78;21049;-70
2022/09/13 01:35:42;;;;;;;8.70;7.90;;;;;;;13.02;97.03;98844.44;1761507;78;21172;-73
2022/09/13 01:38:47;;;;;;;9.25;7.10;;;;;;;12.96;97.55;98842.92;1779769;78;21072;-72
2022/09/13 01:41:53;;;;;;;10.10;7.45;;;;;;;13.02;97.27;98846.61;1783817;78;21151;-72
2022/09/13 01:44:58;;;;;;;7.83;6.95;;;;;;;13.00;97.57;98844.66;1780998;78;20985;-71
2022/09/13 01:47:39;;;;;;;8.63;7.65;;;;;;;12.93;98.11;98843.84;1818624;77;21042;-70
2022/09/13 01:50:29;;;;;;;8.40;7.55;;;;;;;12.96;97.92;98844.73;1786237;78;21100;-73
2022/09/13 01:53:02;;;;;;;10.95;8.53;;;;;;;13.00;98.14;98852.66;1768625;78;21052;-71
2022/09/13 01:55:37;;;;;;;10.85;8.15;;;;;;;12.92;98.44;98844.84;1775013;78;23750;-71
2022/09/13 01:58:32;;;;;;;13.13;9.03;;;;;;;12.87;99.36;98848.14;1781554;78;21036;-72
2022/09/13 02:01:17;;;;;;;10.53;9.30;;;;;;;12.99;99.27;98844.34;1798633;78;21200;-73
2022/09/13 02:04:04;;;;;;;10.18;8.53;;;;;;;13.02;99.68;98845.28;1789934;78;21075;-70
2022/09/13 02:06:35;;;;;;;13.10;8.78;;;;;;;12.99;100.00;98841.67;1791434;78;21651;-73
2022/09/13 02:09:10;;;;;;;11.95;8.70;;;;;;;13.05;100.00;98841.38;1777846;78;22014;-71
2022/09/13 02:11:39;;;;;;;12.33;9.35;;;;;;;13.12;100.00;98845.67;1792443;78;20993;-73
2022/09/13 02:14:13;;;;;;;9.85;8.85;;;;;;;13.06;100.00;98845.69;1801455;78;21029;-72
2022/09/13 02:16:49;;;;;;;9.93;8.65;;;;;;;12.99;100.00;98845.16;1787984;78;21087;-72
2022/09/13 02:19:20;;;;;;;9.53;8.43;;;;;;;13.02;100.00;98843.09;1797186;78;21124;-71
2022/09/13 02:21:53;;;;;;;9.95;8.65;;;;;;;13.01;100.00;98842.29;1798372;78;21002;-70
2022/09/13 02:24:27;;;;;;;11.68;8.20;;;;;;;12.94;100.00;98846.30;1788209;78;21542;-73
2022/09/13 02:26:54;;;;;;;10.23;8.25;;;;;;;12.94;100.00;98847.64;1782710;78;21163;-72
2022/09/13 02:29:22;;;;;;;10.10;9.15;;;;;;;13.02;100.00;98850.61;1802690;79;21054;-73
2022/09/13 02:32:17;;;;;;;9.73;8.73;;;;;;;12.99;100.00;98849.16;1778715;78;21041;-72
2022/09/13 02:34:56;;;;;;;9.00;7.72;;;;;;;12.94;100.00;98846.80;1756137;78;21163;-72
2022/09/13 02:37:24;;;;;;;10.85;8.03;;;;;;;13.00;100.00;98848.66;1788637;78;21036;-71
2022/09/13 02:40:01;;;;;;;9.75;8.43;;;;;;;13.02;100.00;98846.61;1793369;78;21537;-72
2022/09/13 02:42:44;;;;;;;8.45;7.17;;;;;;;12.94;100.00;98853.45;1786804;78;21009;-72
2022/09/13 02:45:11;;;;;;;11.40;7.78;;;;;;;12.93;100.00;98848.65;1763993;78;21052;-75
2022/09/13 02:47:51;;;;;;;8.65;7.47;;;;;;;12.98;100.00;98849.38;1799886;79;21128;-72
2022/09/13 02:50:38;;;;;;;7.97;7.12;;;;;;;12.92;100.00;98844.36;1797126;78;21647;-74
2022/09/13 02:53:26;;;;;;;6.53;5.92;;;;;;;12.87;100.00;98844.66;1781123;79;21034;-74
2022/09/13 02:56:29;;;;;;;6.67;6.03;;;;;;;12.93;100.00;98842.50;1795766;78;21526;-71
2022/09/13 02:59:12;;;;;;;7.90;7.05;;;;;;;12.94;100.00;98843.64;1782582;79;21052;-72
2022/09/13 03:01:41;;;;;;;7.15;6.15;;;;;;;12.83;100.00;98845.58;1796193;79;21973;-72
2022/09/13 03:04:08;;;;;;;6.97;6.28;;;;;;;12.86;100.00;98843.82;1782902;78;21053;-72
2022/09/13 03:06:37;;;;;;;7.28;6.53;;;;;;;12.91;100.00;98837.38;1790852;78;21042;-71
2022/09/13 03:09:03;;;;;;;7.17;6.47;;;;;;;12.89;100.00;98838.61;1797070;78;21131;-74
2022/09/13 03:12:07;;;;;;;7.53;6.08;;;;;;;12.85;100.00;98841.38;1802333;78;21010;-74
2022/09/13 03:15:02;;;;;;;7.28;5.90;;;;;;;12.91;100.00;98835.23;1774868;78;21773;-74
2022/09/13 03:17:58;;;;;;;6.72;6.03;;;;;;;12.94;100.00;98834.80;1783139;78;20994;-75
2022/09/13 03:21:06;;;;;;;6.37;5.78;;;;;;;12.88;100.00;98839.62;1760047;80;21109;-74
2022/09/13 03:24:13;;;;;;;6.25;5.65;;;;;;;12.92;100.00;98838.19;1790542;78;22816;-73
2022/09/13 03:26:56;;;;;;;6.00;5.47;;;;;;;12.95;100.00;98842.59;1786412;78;21085;-73
2022/09/13 03:30:10;;;;;;;8.40;5.12;;;;;;;12.86;100.00;98836.34;1787040;78;21188;-74
2022/09/13 03:33:00;;;;;;;5.92;5.33;;;;;;;12.82;100.00;98834.59;1794307;78;21016;-72
2022/09/13 03:35:58;;;;;;;6.03;5.42;;;;;;;12.84;100.00;98839.73;1797040;78;21036;-75
2022/09/13 03:38:41;;;;;;;6.17;5.33;;;;;;;12.74;100.00;98839.61;1757009;79;21028;-75
2022/09/13 03:41:12;;;;;;;6.35;4.80;;;;;;;12.75;100.00;98836.46;1796453;78;21005;-72
2022/09/13 03:43:55;;;;;;;6.00;5.45;;;;;;;12.82;100.00;98839.92;1761977;79;21855;-74
2022/09/13 03:46:36;;;;;;;7.28;5.87;;;;;;;12.75;100.00;98837.27;1776386;78;21053;-73
2022/09/13 03:49:07;;;;;;;5.45;4.80;;;;;;;12.69;100.00;98844.76;1787970;79;21045;-74
2022/09/13 03:51:34;;;;;;;7.05;5.42;;;;;;;12.76;100.00;98841.56;1794412;78;21100;-73
2022/09/13 03:54:03;;;;;;;8.20;6.58;;;;;;;12.75;100.00;98847.94;1799952;78;21084;-74
2022/09/13 03:56:30;;;;;;;6.92;6.22;;;;;;;12.70;100.00;98850.37;1801206;78;21112;-71
2022/09/13 03:58:56;;;;;;;8.35;6.55;;;;;;;12.71;100.00;98850.70;1795537;77;21542;-74
2022/09/13 04:01:23;;;;;;;7.40;6.70;;;;;;;12.74;100.00;98840.95;1774831;78;21033;-72
2022/09/13 04:03:50;;;;;;;10.30;7.40;;;;;;;12.70;100.00;98849.56;1803349;78;21485;-73
2022/09/13 04:06:16;;;;;;;8.13;6.95;;;;;;;12.63;100.00;98851.39;1780050;78;21579;-73
2022/09/13 04:08:43;;;;;;;8.95;7.72;;;;;;;12.66;100.00;98852.33;1796996;78;21541;-72
2022/09/13 04:11:13;;;;;;;8.78;7.05;;;;;;;12.71;100.00;98858.70;1785905;78;21003;-72
2022/09/13 04:13:40;;;;;;;11.43;7.05;;;;;;;12.67;100.00;98864.62;1797015;78;21569;-73
2022/09/13 04:16:07;;;;;;;11.00;7.03;;;;;;;12.59;100.00;98863.80;1787223;78;21019;-73
2022/09/13 04:18:34;;;;;;;12.40;8.48;;;;;;;12.65;100.00;98862.66;1797395;78;21035;-74
2022/09/13 04:21:01;;;;;;;13.50;9.90;;;;;;;12.65;100.00;98866.17;1791759;78;21208;-74
2022/09/13 04:23:29;;;;;;;11.75;7.75;;;;;;;12.57;100.00;98865.86;1787716;78;21062;-73
2022/09/13 04:26:04;;;;;;;11.08;8.65;;;;;;;12.59;100.00;98873.63;1796523;79;21113;-73
2022/09/13 04:28:31;;;;;;;9.63;8.65;;;;;;;12.62;100.00;98872.42;1784683;79;21047;-73
2022/09/13 04:30:57;;;;;;;12.40;9.30;;;;;;;12.57;100.00;98871.19;1782670;78;21649;-73
2022/09/13 04:33:24;;;;;;;13.70;8.20;;;;;;;12.50;100.00;98862.87;1788801;79;21082;-74
2022/09/13 04:35:58;;;;;;;9.50;8.25;;;;;;;12.50;100.00;98868.20;1781608;78;21502;-73
2022/09/13 04:38:25;;;;;;;10.78;9.75;;;;;;;12.53;100.00;98869.92;1786507;78;21291;-73
2022/09/13 04:40:55;;;;;;;9.78;8.73;;;;;;;12.47;100.00;98870.73;1815071;77;21070;-73
2022/09/13 04:43:22;;;;;;;8.93;8.00;;;;;;;12.39;100.00;98869.08;1812743;77;21515;-73
2022/09/13 04:45:49;;;;;;;14.33;8.80;;;;;;;12.44;100.00;98864.98;1783396;78;21506;-70
2022/09/13 04:48:16;;;;;;;11.20;8.40;;;;;;;12.49;100.00;98867.88;1763649;78;21056;-71
2022/09/13 04:50:43;;;;;;;13.95;9.68;;;;;;;12.43;100.00;98867.35;1781762;78;21010;-70
2022/09/13 04:53:11;;;;;;;13.98;8.60;;;;;;;12.36;100.00;98873.98;1772464;78;21025;-71
2022/09/13 04:55:37;;;;;;;14.55;9.08;;;;;;;12.41;100.00;98874.72;1774857;78;21138;-72
2022/09/13 04:58:04;;;;;;;16.42;9.80;;;;;;;12.47;100.00;98872.58;1785658;78;21284;-72
2022/09/13 05:00:32;;;;;;;11.53;9.50;;;;;;;12.44;100.00;98875.15;1780734;78;21115;-71
2022/09/13 05:03:00;;;;;;;13.35;8.95;;;;;;;12.39;100.00;98876.25;1787037;78;21057;-73
2022/09/13 05:05:27;;;;;;;14.63;10.63;;;;;;;12.42;100.00;98874.53;1781808;78;21498;-72
2022/09/13 05:07:54;;;;;;;16.52;10.82;;;;;;;12.45;100.00;98874.63;1769607;79;21049;-73
2022/09/13 05:10:21;;;;;;;12.85;9.30;;;;;;;12.36;100.00;98876.16;1739569;78;21045;-72
2022/09/13 05:12:48;;;;;;;12.78;8.75;;;;;;;12.36;100.00;98865.50;1760354;78;21052;-73
2022/09/13 05:15:15;;;;;;;12.13;9.98;;;;;;;12.42;100.00;98871.86;1765604;78;21149;-73
2022/09/13 05:17:43;;;;;;;13.00;10.15;;;;;;;12.38;100.00;98874.11;1775605;78;21063;-73
2022/09/13 05:20:10;;;;;;;12.93;9.58;;;;;;;12.34;100.00;98880.02;1775314;78;21061;-73
2022/09/13 05:22:37;;;;;;;12.05;9.88;;;;;;;12.34;100.00;98878.20;1761181;79;21156;-74
2022/09/13 05:25:04;;;;;;;13.93;10.35;;;;;;;12.38;100.00;98883.91;1764907;80;21038;-75
2022/09/13 05:27:31;;;;;;;14.45;9.63;;;;;;;12.32;100.00;98890.89;1756238;80;21059;-71
2022/09/13 05:29:59;;;;;;;12.75;9.58;;;;;;;12.24;100.00;98884.91;1762495;79;21041;-73
2022/09/13 05:32:26;;;;;;;15.32;10.58;;;;;;;12.29;100.00;98886.48;1765382;79;21038;-74
2022/09/13 05:34:53;;;;;;;14.85;10.98;;;;;;;12.32;100.00;98884.73;1796115;79;21231;-74
2022/09/13 05:37:19;;;;;;;12.05;10.68;;;;;;;12.27;100.00;98889.85;1782144;80;21020;-74
2022/09/13 05:39:46;;;;;;;12.50;9.88;;;;;;;12.28;100.00;98892.29;1799837;79;21083;-73
2022/09/13 05:42:12;;;;;;;12.18;10.05;;;;;;;12.39;100.00;98897.56;1784342;80;21008;-74
2022/09/13 05:44:39;;;;;;;14.83;10.48;;;;;;;12.37;100.00;98899.09;1785963;79;21041;-73
2022/09/13 05:47:05;;;;;;;13.03;10.08;;;;;;;12.33;100.00;98898.36;1782214;79;21140;-73
2022/09/13 05:49:31;;;;;;;13.62;9.43;;;;;;;12.34;100.00;98903.98;1766730;80;21032;-71
2022/09/13 05:51:58;;;;;;;12.82;10.32;;;;;;;12.42;100.00;98901.66;1788550;79;21529;-74
2022/09/13 05:54:25;;;;;;;12.98;10.13;;;;;;;12.37;100.00;98901.75;1776009;80;21516;-73
2022/09/13 05:56:53;;;;;;;12.53;8.80;;;;;;;12.29;100.00;98905.92;1783283;79;21098;-74
2022/09/13 05:59:19;;;;;;;12.10;9.23;;;;;;;12.29;100.00;98909.11;1791219;79;21216;-73
2022/09/13 06:01:48;;;;;;;10.32;9.13;;;;;;;12.34;100.00;98912.82;1782651;78;20965;-77
2022/09/13 06:04:15;;;;;;;10.58;8.95;;;;;;;12.29;100.00;98912.59;1788710;79;21032;-76
2022/09/13 06:06:41;;;;;;;10.25;8.90;;;;;;;12.22;100.00;98920.23;1774017;79;21054;-77
2022/09/13 06:09:10;;;;;;;11.83;7.92;;;;;;;12.22;100.00;98918.91;1773039;79;21009;-76
2022/09/13 06:11:37;;;;;;;9.20;8.30;;;;;;;12.27;99.60;98922.62;1784471;79;21254;-77
2022/09/13 06:14:03;;;;;;;9.63;8.63;;;;;;;12.22;99.54;98922.38;1776641;79;21004;-78
2022/09/13 06:16:31;;;;;;;10.60;8.65;;;;;;;12.15;99.68;98922.37;1769628;80;21046;-77
2022/09/13 06:18:58;;;;;;;10.80;8.10;;;;;;;12.16;99.58;98933.84;1770358;78;21646;-78
2022/09/13 06:21:24;;;;;;;10.05;9.05;;;;;;;12.20;99.37;98930.56;1764391;79;21349;-78
2022/09/13 06:23:52;;;;;;;11.40;9.48;;;;;;;12.17;99.35;98935.49;1766474;79;21242;-78
2022/09/13 06:26:21;;;;;;;10.82;9.15;;;;;;;12.09;99.58;98934.30;1767860;79;21114;-76
2022/09/13 06:28:49;;;;;;;9.80;8.13;;;;;;;12.11;99.60;98935.77;1763136;79;21014;-78
2022/09/13 06:31:18;;;;;;;10.45;9.30;;;;;;;12.16;99.54;98931.17;1761689;81;20986;-78
2022/09/13 06:33:45;;;;;;;13.15;9.23;;;;;;;12.15;99.66;98933.02;1765320;79;21085;-78
2022/09/13 06:36:19;;;;;;;9.73;8.25;;;;;;;12.10;99.90;98930.64;1762258;79;22133;-78
2022/09/13 06:38:47;;;;;;;9.25;7.87;;;;;;;12.12;99.46;98937.39;1762960;81;21069;-77
2022/09/13 06:41:19;;;;;;;10.85;9.15;;;;;;;12.14;99.15;98932.69;1763802;79;21021;-77
2022/09/13 06:43:49;;;;;;;10.80;9.33;;;;;;;12.07;99.34;98935.86;1763367;79;21534;-75
2022/09/13 06:46:17;;;;;;;11.80;8.68;;;;;;;11.98;100.00;98944.50;1764664;79;21515;-77
2022/09/13 06:48:44;;;;;;;12.23;8.30;;;;;;;12.06;100.00;98934.72;1753155;80;21055;-77
2022/09/13 06:51:15;;;;;;;12.35;9.20;;;;;;;12.16;99.99;98931.17;1758550;79;21114;-77
2022/09/13 06:53:42;;;;;;;12.80;8.93;;;;;;;12.22;100.00;98932.22;1759797;80;21617;-76
2022/09/13 06:56:15;;;;;;;11.50;8.78;;;;;;;12.18;100.00;98924.62;1761980;79;21113;-80
2022/09/13 06:58:45;;;;;;;11.65;9.55;;;;;;;12.29;99.48;98937.89;1757385;79;21659;-80
2022/09/13 07:04:08;;;;;;;10.58;8.65;;;;;;;12.32;99.63;98937.50;1839771;77;28349;-79
2022/09/13 07:06:38;;;;;;;12.05;9.38;;;;;;;12.30;99.20;98939.52;1796663;77;21592;-75
2022/09/13 07:09:07;;;;;;;11.38;9.70;;;;;;;12.36;98.81;98940.56;1795109;77;21852;-76
2022/09/13 07:11:38;;;;;;;11.70;9.15;;;;;;;12.30;98.80;98944.84;1823361;77;20921;-76
2022/09/13 07:14:08;;;;;;;13.08;8.68;;;;;;;12.25;99.22;98946.48;1797119;77;21001;-75
2022/09/13 07:16:37;;;;;;;10.82;8.58;;;;;;;12.29;99.20;98949.87;1802246;78;21004;-75
2022/09/13 07:19:07;;;;;;;11.08;9.00;;;;;;;12.38;98.40;98952.69;1812532;78;20992;-77
2022/09/13 07:21:37;;;;;;;12.43;8.80;;;;;;;12.35;98.53;98953.59;1803070;78;21537;-78
2022/09/13 07:24:05;;;;;;;9.78;8.78;;;;;;;12.29;98.53;98957.05;1802758;78;20983;-79
2022/09/13 07:26:32;;;;;;;9.95;8.95;;;;;;;12.31;98.08;98961.14;1800699;78;21041;-78
2022/09/13 07:29:01;;;;;;;11.12;10.03;;;;;;;12.36;97.82;98963.20;1813411;77;21477;-79
2022/09/13 07:31:34;;;;;;;17.30;10.18;;;;;;;12.33;98.17;98961.77;1815740;77;21046;-77
2022/09/13 07:34:06;;;;;;;14.20;9.40;;;;;;;12.28;98.13;98958.05;1789582;78;21220;-77
2022/09/13 07:36:35;;;;;;;15.45;8.50;;;;;;;12.33;98.06;98956.44;1795253;78;20998;-77
2022/09/13 07:39:02;;;;;;;13.30;9.23;;;;;;;12.43;97.60;98960.58;1796340;78;21004;-77
2022/09/13 07:41:29;;;;;;;12.23;10.05;;;;;;;12.41;97.62;98951.97;1795885;78;21154;-74
2022/09/13 07:43:57;;;;;;;9.15;8.30;;;;;;;12.35;97.49;98957.58;1799042;78;21016;-73
2022/09/13 07:46:32;;;;;;;11.00;8.70;;;;;;;12.42;97.75;98957.11;1798679;78;21627;-75
2022/09/13 07:49:00;;;;;;;13.50;9.58;;;;;;;12.53;97.29;98955.69;1799308;78;21722;-74
2022/09/13 07:51:30;;;;;;;10.38;8.68;;;;;;;12.53;97.17;98958.36;1786194;78;21045;-76
2022/09/13 07:54:00;;;;;;;10.63;9.25;;;;;;;12.51;97.33;98956.41;1799767;78;21041;-74
2022/09/13 07:56:31;;;;;;;12.70;10.40;;;;;;;12.55;96.58;98953.12;1822103;77;21062;-75
2022/09/13 07:58:59;;;;;;;11.05;9.40;;;;;;;12.63;96.22;98957.45;1826848;78;21251;-74
2022/09/13 08:01:29;;;;;;;10.82;9.83;;;;;;;12.63;96.45;98955.31;1828577;77;21019;-75
2022/09/13 08:04:01;;;;;;;12.55;8.90;;;;;;;12.60;96.17;98951.21;1822457;77;21567;-74
2022/09/13 08:06:30;;;;;;;10.40;8.75;;;;;;;12.62;95.59;98949.17;1827785;77;20992;-80
2022/09/13 08:08:57;;;;;;;10.80;9.75;;;;;;;12.67;95.17;98960.55;1831311;78;21530;-77
2022/09/13 08:11:27;;;;;;;11.25;9.88;;;;;;;12.61;95.16;98951.50;1825124;78;21052;-77
2022/09/13 08:13:54;;;;;;;10.78;9.48;;;;;;;12.59;95.37;98954.88;1828939;77;21057;-77
2022/09/13 08:16:22;;;;;;;10.15;9.13;;;;;;;12.68;95.36;98947.03;1826597;77;21074;-76
2022/09/13 08:18:51;;;;;;;11.08;9.88;;;;;;;12.82;95.38;98948.39;1821662;77;22086;-77
2022/09/13 08:21:18;;;;;;;14.60;10.90;;;;;;;12.84;95.12;98946.34;1833257;77;21079;-76
2022/09/13 08:23:44;;;;;;;12.40;9.88;;;;;;;12.81;94.74;98951.58;1829492;77;21044;-75
2022/09/13 08:26:11;;;;;;;12.35;9.30;;;;;;;12.85;94.60;98953.33;1830021;78;21048;-77
2022/09/13 08:28:42;;;;;;;11.80;9.40;;;;;;;12.92;94.42;98952.33;1824456;78;21643;-77
2022/09/13 08:31:15;;;;;;;11.88;10.58;;;;;;;12.86;93.59;98945.11;1822264;78;21012;-78
2022/09/13 08:33:44;;;;;;;;;;;;;;;12.73;93.34;98947.25;1831750;77;20999;-76
2022/09/13 08:36:11;;;;;;;10.72;9.68;;;;;;;12.72;92.95;98947.45;1830593;78;21161;-76
2022/09/13 08:38:38;;;;;;;11.90;10.70;;;;;;;12.70;92.92;98942.31;1829755;78;21117;-75
2022/09/13 08:41:26;;;;;;;12.58;10.58;;;;;;;12.64;93.15;98943.13;1830509;78;21007;-77
2022/09/13 08:44:36;;;;;;;10.30;9.15;;;;;;;12.59;93.72;98945.07;1818889;77;21110;-75
2022/09/13 08:47:26;;;;;;;10.70;9.50;;;;;;;12.62;93.38;98949.69;1822236;77;21287;-76
2022/09/13 08:50:01;;;;;;;10.85;9.85;;;;;;;12.64;93.42;98947.13;1823054;78;21156;-76
2022/09/13 08:52:49;;;;;;;10.28;9.18;;;;;;;12.58;93.34;98947.93;1825061;78;20995;-78
2022/09/13 08:55:36;;;;;;;11.63;9.00;;;;;;;12.52;93.13;98943.41;1824462;78;21092;-77
2022/09/13 08:58:17;;;;;;;10.88;9.85;;;;;;;12.60;92.98;98945.88;1721874;78;21046;-76
2022/09/13 09:00:49;;;;;;;11.93;10.20;;;;;;;12.57;93.17;98946.27;1825456;77;21567;-76
2022/09/13 09:03:40;;;;;;;11.12;9.10;;;;;;;12.53;93.55;98934.37;1826346;78;21114;-76
2022/09/13 09:06:13;;;;;;;10.23;9.10;;;;;;;12.59;93.34;98934.91;1813115;78;21212;-78
2022/09/13 09:08:55;;;;;;;;;;;;;;;12.64;92.72;98938.31;1828921;78;21107;-76
2022/09/13 09:11:42;;;;;;;11.70;9.38;;;;;;;12.58;93.05;98931.42;1827610;78;20247;-76
2022/09/13 09:14:30;;;;;;;10.72;8.85;;;;;;;12.53;93.41;98934.37;1824655;77;21055;-76
2022/09/13 09:17:02;;;;;;;11.88;10.43;;;;;;;12.59;93.71;98934.91;1853324;76;21962;-75
2022/09/13 09:19:39;;;;;;;;;;;;;;;12.66;93.78;98937.60;1828757;77;21114;-75
2022/09/13 09:22:17;;;;;;;11.60;9.85;;;;;;;12.65;93.75;98931.95;1828674;77;20499;-77
2022/09/13 09:24:46;;;;;;;9.03;8.15;;;;;;;12.64;93.81;98934.31;1823352;78;21018;-76
2022/09/13 09:27:16;;;;;;;11.70;9.68;;;;;;;12.74;93.20;98932.89;1826971;78;21027;-75
2022/09/13 09:29:45;;;;;;;15.45;9.55;;;;;;;12.72;92.45;98926.13;1828034;77;21077;-77
2022/09/13 09:32:53;;;;;;;11.93;9.53;;;;;;;12.69;92.81;98934.03;1825209;77;21058;-78
2022/09/13 09:35:35;;;;;;;11.73;8.90;;;;;;;12.63;92.52;98934.80;1824288;77;21105;-75
2022/09/13 09:38:30;;;;;;;11.85;9.75;;;;;;;12.76;92.23;98934.03;1827070;77;21031;-76
2022/09/13 09:41:04;;;;;;;13.15;9.25;;;;;;;12.81;91.95;98938.77;1825201;77;21042;-77
2022/09/13 09:43:43;;;;;;;11.55;9.03;;;;;;;12.73;91.43;98936.59;1825880;77;21099;-74
2022/09/13 09:46:10;;;;;;;13.72;9.43;;;;;;;12.73;90.75;98939.27;1825326;77;21063;-77
2022/09/13 09:48:50;;;;;;;12.75;10.13;;;;;;;12.76;90.35;98936.69;1823271;77;21058;-77
2022/09/13 09:51:18;;;;;;;12.00;9.83;;;;;;;12.69;90.42;98941.17;1826252;77;21067;-75
2022/09/13 09:53:48;;;;;;;10.82;9.23;;;;;;;12.61;90.51;98938.70;1801574;78;21031;-78
2022/09/13 09:56:23;;;;;;;12.03;8.93;;;;;;;12.63;90.71;98934.80;1824585;77;21102;-76
2022/09/13 09:58:50;;;;;;;12.58;9.20;;;;;;;12.71;90.13;98939.97;1820182;78;21074;-77
2022/09/13 10:01:32;;;;;;;12.50;9.03;;;;;;;12.64;89.67;98934.31;1798637;78;21067;-79
2022/09/13 10:04:15;;;;;;;12.68;7.65;;;;;;;12.55;89.59;98942.47;1826379;77;21012;-78
2022/09/13 10:06:42;;;;;;;9.70;7.40;;;;;;;12.57;89.35;98942.28;1823204;78;21070;-79
2022/09/13 10:09:15;;;;;;;9.00;7.87;;;;;;;12.59;89.57;98937.56;1827079;77;21517;-78
2022/09/13 10:11:50;;;;;;;9.83;8.53;;;;;;;12.57;88.82;98939.61;1827118;78;21607;-79
2022/09/13 10:14:41;;;;;;;11.05;6.40;;;;;;;12.52;88.78;98942.08;1827477;77;25024;-77
2022/09/13 10:17:28;;;;;;;10.00;6.15;;;;;;;12.60;88.60;98939.22;1828898;77;21043;-79
2022/09/13 10:20:00;;;;;;;9.73;7.25;;;;;;;12.69;88.38;98950.02;1826780;77;21062;-80
2022/09/13 10:22:28;;;;;;;11.88;7.40;;;;;;;12.66;88.29;98950.41;1825424;77;21027;-78
2022/09/13 10:24:54;;;;;;;9.20;6.53;;;;;;;12.63;88.31;98947.31;1824868;77;21011;-78
2022/09/13 10:27:34;;;;;;;7.70;6.60;;;;;;;12.67;87.90;98947.22;1856896;76;21098;-79
2022/09/13 10:30:02;;;;;;;7.95;7.15;;;;;;;12.72;87.62;98952.26;1828413;77;21000;-78
2022/09/13 10:32:30;;;;;;;8.48;7.15;;;;;;;12.66;88.15;98943.74;1825961;77;21641;-77
2022/09/13 10:35:04;;;;;;;10.60;5.65;;;;;;;12.63;88.42;98948.13;1824701;77;21760;-77
2022/09/13 10:37:34;;;;;;;9.03;6.42;;;;;;;12.68;88.03;98948.87;1826519;77;21018;-74
2022/09/13 10:40:32;;;;;;;11.22;6.75;;;;;;;12.75;87.65;98947.06;1828245;77;21527;-75
2022/09/13 10:43:02;;;;;;;10.40;6.33;;;;;;;12.72;87.71;98948.27;1813180;78;21508;-73
2022/09/13 10:45:35;;;;;;;8.63;6.55;;;;;;;12.69;87.25;98950.02;1830202;77;21055;-75
2022/09/13 10:48:06;;;;;;;8.88;7.10;;;;;;;12.75;87.43;98948.39;1825615;78;21129;-74
2022/09/13 10:50:34;;;;;;;10.23;7.60;;;;;;;12.80;87.46;98949.92;1827332;77;21128;-75
2022/09/13 10:53:03;;;;;;;8.43;7.53;;;;;;;12.77;87.24;98945.83;1824024;77;21000;-78
2022/09/13 10:55:34;;;;;;;11.88;6.33;;;;;;;12.73;87.20;98942.45;1804282;78;21083;-78
2022/09/13 10:58:10;;;;;;;9.70;7.25;;;;;;;12.77;87.26;98943.68;1811364;77;21038;-76
2022/09/13 11:01:18;;;;;;;10.03;7.78;;;;;;;12.88;86.72;98946.25;1828891;77;21745;-80
2022/09/13 11:03:58;;;;;;;11.73;8.00;;;;;;;12.84;86.63;98951.67;1829348;78;21311;-78
2022/09/13 11:07:02;;;;;;;14.80;6.45;;;;;;;12.78;86.64;98945.30;1827942;77;20985;-77
2022/09/13 11:10:08;;;;;;;9.83;7.00;;;;;;;12.79;86.46;98954.44;1828265;78;21238;-76
2022/09/13 11:12:42;;;;;;;10.20;7.25;;;;;;;12.87;86.60;98955.28;1794944;77;21570;-77
2022/09/13 11:15:32;;;;;;;8.60;7.40;;;;;;;12.82;86.96;98951.06;1832768;77;21736;-77
2022/09/13 11:18:04;;;;;;;10.30;5.92;;;;;;;12.77;86.84;98945.83;1827601;77;21007;-76
2022/09/13 11:20:52;;;;;;;11.83;7.20;;;;;;;12.85;86.52;98948.00;1818273;77;21066;-76
2022/09/13 11:23:46;;;;;;;11.35;7.67;;;;;;;12.93;86.50;98946.47;1832056;77;20984;-78
2022/09/13 11:26:47;;;;;;;8.45;7.30;;;;;;;12.92;86.10;98946.15;1829887;77;21052;-78
2022/09/13 11:29:31;;;;;;;10.23;6.15;;;;;;;12.84;85.96;98945.02;1831951;77;21202;-77
2022/09/13 11:32:42;;;;;;;8.73;6.75;;;;;;;12.88;85.77;98947.58;1829830;78;21052;-80
2022/09/13 11:35:31;;;;;;;12.25;7.22;;;;;;;12.93;85.44;98948.61;1829389;77;21464;-79
2022/09/13 11:38:28;;;;;;;10.68;6.90;;;;;;;12.88;85.41;98951.58;1834468;78;21205;-80
2022/09/13 11:41:27;;;;;;;9.15;6.05;;;;;;;12.81;85.05;98948.91;1829860;78;21064;-78
2022/09/13 11:44:32;;;;;;;9.25;7.58;;;;;;;12.84;85.10;98945.02;1837861;77;21112;-79
2022/09/13 11:47:36;;;;;;;8.70;7.55;;;;;;;12.87;85.07;98949.44;1835582;77;21031;-78
2022/09/13 11:50:44;;;;;;;9.50;7.75;;;;;;;12.81;85.25;98940.92;1801571;77;21535;-79
2022/09/13 11:53:31;;;;;;;9.40;5.70;;;;;;;12.76;85.27;98938.02;1816826;77;20992;-79
2022/09/13 11:56:07;;;;;;;9.15;6.83;;;;;;;12.86;85.48;98942.96;1829890;77;21044;-79
2022/09/13 11:58:55;;;;;;;8.73;6.62;;;;;;;12.93;85.31;98937.95;1799496;78;22457;-79
2022/09/13 12:01:30;;;;;;;12.13;7.80;;;;;;;12.92;85.03;98942.15;1830752;78;21070;-79
2022/09/13 12:04:02;;;;;;;8.18;6.78;;;;;;;12.89;85.10;98946.57;1826264;77;21031;-78
2022/09/13 12:06:40;;;;;;;9.40;7.00;;;;;;;12.94;85.17;98946.77;1821897;77;21497;-79
2022/09/13 12:09:21;;;;;;;8.30;7.35;;;;;;;13.01;84.42;98950.27;1824424;77;21007;-78